Time;durP1;ratioP1;P1;durP2;ratioP2;P2;SDS_P1;SDS_P2;PMS_P1;PMS_P2;Temp;Humidity;BMP_temperature;BMP_pressure;BME280_temperature;BME280_humidity;BME280_pressure;Samples;Min_cycle;Max_cycle;Signal;HPM_P1;HPM_P2
2021/11/23 00:01:03;;;;;;;65.07;29.33;;;2.90;99.90;;;;;;5098355;28;20186;-81
2021/11/23 00:03:29;;;;;;;100.43;39.97;;;2.90;99.90;;;;;;5097882;28;20220;-81
2021/11/23 00:05:55;;;;;;;87.90;34.73;;;2.90;99.90;;;;;;5097772;28;20217;-81
2021/11/23 00:08:21;;;;;;;83.03;36.60;;;2.90;99.90;;;;;;5080191;28;20234;-81
2021/11/23 00:10:47;;;;;;;93.27;39.33;;;2.90;99.90;;;;;;5092497;28;20291;-81
2021/11/23 00:13:16;;;;;;;76.87;34.53;;;2.90;99.90;;;;;;5086812;28;20515;-82
2021/11/23 00:15:43;;;;;;;77.60;35.60;;;2.90;99.90;;;;;;5073890;28;20178;-81
2021/11/23 00:18:11;;;;;;;106.20;45.00;;;2.90;99.90;;;;;;5073810;28;20176;-83
2021/11/23 00:20:38;;;;;;;94.80;41.13;;;2.90;99.90;;;;;;5079049;28;20206;-81
2021/11/23 00:23:04;;;;;;;79.37;39.67;;;2.80;99.90;;;;;;5079542;28;20160;-81
2021/11/23 00:25:31;;;;;;;77.57;37.67;;;2.70;99.90;;;;;;5074289;28;20180;-81
2021/11/23 00:27:57;;;;;;;79.10;39.70;;;2.80;99.90;;;;;;5073383;28;20304;-81
2021/11/23 00:30:27;;;;;;;88.80;43.53;;;2.80;99.90;;;;;;5073768;28;20184;-81
2021/11/23 00:32:54;;;;;;;88.20;42.77;;;2.80;99.90;;;;;;5055828;28;20186;-81
2021/11/23 00:35:20;;;;;;;94.43;47.43;;;2.80;99.90;;;;;;5074057;28;20260;-82
2021/11/23 00:37:48;;;;;;;88.67;41.30;;;2.80;99.90;;;;;;5073370;28;20177;-81
2021/11/23 00:40:15;;;;;;;80.47;37.93;;;2.80;99.90;;;;;;5072264;28;20380;-81
2021/11/23 00:42:41;;;;;;;72.00;36.43;;;2.80;99.90;;;;;;5073515;28;20642;-81
2021/11/23 00:45:08;;;;;;;81.10;40.53;;;2.70;99.90;;;;;;5072321;28;20273;-82
2021/11/23 00:47:34;;;;;;;84.67;47.03;;;2.80;99.90;;;;;;5055445;28;20183;-81
2021/11/23 00:50:00;;;;;;;81.87;38.13;;;2.80;99.90;;;;;;5078947;28;20183;-81
2021/11/23 00:52:26;;;;;;;77.70;37.63;;;2.70;99.90;;;;;;5079294;28;20567;-81
2021/11/23 00:54:52;;;;;;;82.23;41.07;;;2.70;99.90;;;;;;5082611;28;20182;-82
2021/11/23 00:57:17;;;;;;;80.60;35.13;;;2.70;99.90;;;;;;5080114;28;20185;-81
2021/11/23 00:59:43;;;;;;;77.07;36.70;;;2.70;99.90;;;;;;5095239;28;20214;-82
2021/11/23 01:02:09;;;;;;;76.30;38.67;;;2.70;99.90;;;;;;5101278;28;20159;-86
2021/11/23 01:04:35;;;;;;;61.57;31.83;;;2.60;99.90;;;;;;5101535;28;20178;-82
2021/11/23 01:07:01;;;;;;;70.73;34.57;;;2.60;99.90;;;;;;5101080;28;20228;-82
2021/11/23 01:09:27;;;;;;;64.87;32.20;;;2.60;99.90;;;;;;5097583;28;20232;-82
2021/11/23 01:11:53;;;;;;;64.60;33.23;;;2.50;99.90;;;;;;5089467;28;20180;-81
2021/11/23 01:14:19;;;;;;;61.77;32.53;;;2.40;99.90;;;;;;5091774;28;20170;-83
2021/11/23 01:16:47;;;;;;;68.40;34.80;;;2.30;99.90;;;;;;5101231;28;20184;-82
2021/11/23 01:19:17;;;;;;;71.73;35.27;;;2.30;99.90;;;;;;5084062;28;20197;-91
2021/11/23 01:21:43;;;;;;;67.73;33.50;;;2.30;99.90;;;;;;5100719;28;20184;-82
2021/11/23 01:24:10;;;;;;;64.73;35.13;;;2.20;99.90;;;;;;5080358;28;20214;-82
2021/11/23 01:26:36;;;;;;;72.07;37.20;;;2.20;99.90;;;;;;5075085;28;20183;-81
2021/11/23 01:29:03;;;;;;;75.07;35.67;;;2.30;99.90;;;;;;5076418;28;20191;-81
2021/11/23 01:31:29;;;;;;;61.27;30.80;;;2.30;99.90;;;;;;5075328;28;20175;-81
2021/11/23 01:33:55;;;;;;;61.43;32.47;;;2.30;99.90;;;;;;5058087;28;20183;-81
2021/11/23 01:36:20;;;;;;;51.20;27.40;;;2.30;99.90;;;;;;5075421;28;20396;-81
2021/11/23 01:38:46;;;;;;;54.90;27.77;;;2.30;99.90;;;;;;5075267;28;20225;-82
2021/11/23 01:41:12;;;;;;;68.27;34.50;;;2.30;99.90;;;;;;5075314;28;20603;-81
2021/11/23 01:43:38;;;;;;;66.60;34.67;;;2.20;99.90;;;;;;5075867;28;20175;-82
2021/11/23 01:46:04;;;;;;;53.37;28.03;;;2.20;99.90;;;;;;5075036;28;20612;-82
2021/11/23 01:48:31;;;;;;;66.27;33.23;;;2.20;99.90;;;;;;5075902;28;20232;-82
2021/11/23 01:50:58;;;;;;;45.73;23.47;;;2.20;99.90;;;;;;5076008;28;20174;-82
2021/11/23 01:53:23;;;;;;;37.70;21.43;;;2.30;99.90;;;;;;5074911;28;20275;-80
2021/11/23 01:55:49;;;;;;;41.53;21.77;;;2.30;99.90;;;;;;5059396;28;20211;-81
2021/11/23 01:58:15;;;;;;;36.27;18.53;;;2.20;99.90;;;;;;5075245;28;20635;-82
2021/11/23 02:00:43;;;;;;;31.57;18.03;;;2.20;99.90;;;;;;5074587;28;20229;-82
2021/11/23 02:03:09;;;;;;;31.13;17.53;;;2.10;99.90;;;;;;5074810;28;20234;-82
2021/11/23 02:05:35;;;;;;;27.77;16.80;;;2.10;99.90;;;;;;5074336;28;20642;-82
2021/11/23 02:08:02;;;;;;;28.80;15.63;;;2.10;99.90;;;;;;5057345;28;20236;-81
2021/11/23 02:10:27;;;;;;;32.07;17.73;;;2.10;99.90;;;;;;5073002;28;20179;-82
2021/11/23 02:12:54;;;;;;;35.37;19.53;;;2.10;99.90;;;;;;5075514;28;20186;-81
2021/11/23 02:15:20;;;;;;;30.27;17.90;;;2.00;99.90;;;;;;5075849;28;20632;-82
2021/11/23 02:17:47;;;;;;;29.00;15.80;;;2.10;99.90;;;;;;5074481;28;20176;-82
2021/11/23 02:20:21;;;;;;;34.30;17.53;;;2.10;99.90;;;;;;5057475;28;20211;-84
2021/11/23 02:22:49;;;;;;;37.20;18.17;;;2.10;99.90;;;;;;5074945;28;20206;-82
2021/11/23 02:25:16;;;;;;;34.13;18.83;;;2.00;99.90;;;;;;5074817;28;20182;-84
2021/11/23 02:27:42;;;;;;;33.70;19.20;;;2.00;99.90;;;;;;5074729;28;20232;-82
2021/11/23 02:30:10;;;;;;;38.10;20.17;;;2.10;99.90;;;;;;5075019;28;20179;-82
2021/11/23 02:32:38;;;;;;;45.10;23.53;;;2.00;99.90;;;;;;5075013;28;20176;-81
2021/11/23 02:35:04;;;;;;;32.90;19.30;;;2.00;99.90;;;;;;5073756;28;20693;-82
2021/11/23 02:37:30;;;;;;;35.30;21.13;;;2.00;99.90;;;;;;5074018;28;20197;-81
2021/11/23 02:39:55;;;;;;;29.37;17.07;;;2.00;99.90;;;;;;5073451;28;20234;-82
2021/11/23 02:42:21;;;;;;;40.57;20.67;;;2.00;99.90;;;;;;5074791;28;20670;-82
2021/11/23 02:44:47;;;;;;;38.73;21.23;;;2.00;99.90;;;;;;5075225;28;20617;-82
2021/11/23 02:47:12;;;;;;;37.70;21.50;;;1.90;99.90;;;;;;5075612;28;20244;-82
2021/11/23 02:49:38;;;;;;;44.00;23.43;;;2.00;99.90;;;;;;5073631;28;20631;-82
2021/11/23 02:52:10;;;;;;;45.43;22.23;;;2.00;99.90;;;;;;5073463;28;20179;-83
2021/11/23 02:54:36;;;;;;;38.70;20.60;;;2.00;99.90;;;;;;5057362;28;20196;-82
2021/11/23 02:57:02;;;;;;;39.47;21.63;;;2.10;99.90;;;;;;5073555;28;20228;-82
2021/11/23 02:59:28;;;;;;;37.03;20.37;;;2.10;99.90;;;;;;5074474;28;20206;-82
2021/11/23 03:01:55;;;;;;;32.87;18.70;;;2.20;99.90;;;;;;5074630;28;20176;-82
2021/11/23 03:04:20;;;;;;;33.37;19.40;;;2.20;99.90;;;;;;5074416;28;20273;-82
2021/11/23 03:06:48;;;;;;;33.37;19.83;;;2.10;99.90;;;;;;5073656;28;20649;-81
2021/11/23 03:09:13;;;;;;;25.60;14.23;;;2.00;99.90;;;;;;5057405;28;20328;-82
2021/11/23 03:11:39;;;;;;;24.03;13.93;;;2.00;99.90;;;;;;5081200;28;20242;-81
2021/11/23 03:14:05;;;;;;;19.57;11.93;;;2.00;99.90;;;;;;5079707;28;20751;-83
2021/11/23 03:16:30;;;;;;;27.27;13.43;;;2.10;99.90;;;;;;5074843;28;20179;-82
2021/11/23 03:18:56;;;;;;;20.30;12.20;;;2.10;99.90;;;;;;5073542;28;20733;-82
2021/11/23 03:21:21;;;;;;;24.00;12.53;;;2.10;99.90;;;;;;5073649;28;20619;-84
2021/11/23 03:23:48;;;;;;;22.60;12.50;;;2.00;99.90;;;;;;5056807;28;20616;-81
2021/11/23 03:26:14;;;;;;;27.10;13.53;;;2.00;99.90;;;;;;5075495;28;20179;-81
2021/11/23 03:28:39;;;;;;;25.27;14.20;;;1.90;99.90;;;;;;5074515;28;20297;-82
2021/11/23 03:31:05;;;;;;;25.47;13.70;;;1.80;99.90;;;;;;5074540;28;20543;-82
2021/11/23 03:33:31;;;;;;;24.93;13.77;;;1.70;99.90;;;;;;5073128;28;20187;-83
2021/11/23 03:35:57;;;;;;;25.07;13.43;;;1.70;99.90;;;;;;5075807;28;20629;-82
2021/11/23 03:38:24;;;;;;;26.63;14.73;;;1.60;99.90;;;;;;5074080;28;20647;-82
2021/11/23 03:40:49;;;;;;;27.57;15.13;;;1.50;99.90;;;;;;5056268;28;20214;-82
2021/11/23 03:43:16;;;;;;;27.27;14.47;;;1.50;99.90;;;;;;5074542;28;20178;-84
2021/11/23 03:45:43;;;;;;;23.20;13.37;;;1.40;99.90;;;;;;5074478;28;20262;-81
2021/11/23 03:48:09;;;;;;;31.60;16.20;;;1.30;99.90;;;;;;5073987;28;20303;-82
2021/11/23 03:50:35;;;;;;;27.43;15.47;;;1.40;99.90;;;;;;5074192;28;20658;-82
2021/11/23 03:53:06;;;;;;;34.93;16.60;;;1.30;99.90;;;;;;5073526;28;20248;-81
2021/11/23 03:55:34;;;;;;;30.27;16.73;;;1.30;99.90;;;;;;5072276;28;20237;-82
2021/11/23 03:58:01;;;;;;;32.37;17.57;;;1.20;99.90;;;;;;5074118;28;20175;-82
2021/11/23 04:00:27;;;;;;;29.87;17.77;;;1.20;99.90;;;;;;5072493;28;20209;-85
2021/11/23 04:02:54;;;;;;;33.07;18.07;;;1.20;99.90;;;;;;5072848;28;20232;-82
2021/11/23 04:05:20;;;;;;;31.53;18.33;;;1.10;99.90;;;;;;5072689;28;20186;-82
2021/11/23 04:07:46;;;;;;;34.50;17.33;;;1.20;99.90;;;;;;5072185;28;20179;-82
2021/11/23 04:10:14;;;;;;;45.13;21.50;;;1.10;99.90;;;;;;5072626;28;20211;-82
2021/11/23 04:12:39;;;;;;;36.23;18.93;;;1.10;99.90;;;;;;5072272;28;20240;-81
2021/11/23 04:15:07;;;;;;;38.03;19.80;;;1.10;99.90;;;;;;5055253;28;20186;-82
2021/11/23 04:17:33;;;;;;;43.13;22.33;;;1.00;99.90;;;;;;5073426;28;20199;-81
2021/11/23 04:19:59;;;;;;;39.30;21.17;;;1.00;99.90;;;;;;5073165;28;20782;-82
2021/11/23 04:22:25;;;;;;;41.73;22.10;;;1.00;99.90;;;;;;5072449;28;20262;-82
2021/11/23 04:24:51;;;;;;;37.33;19.87;;;1.10;99.90;;;;;;5073155;28;20565;-81
2021/11/23 04:27:16;;;;;;;44.67;22.70;;;1.20;99.90;;;;;;5056054;28;20186;-82
2021/11/23 04:29:42;;;;;;;48.40;24.27;;;1.20;99.90;;;;;;5072528;28;20391;-82
2021/11/23 04:32:08;;;;;;;50.80;24.73;;;1.20;99.90;;;;;;5073639;28;20179;-82
2021/11/23 04:34:34;;;;;;;47.73;23.57;;;1.20;99.90;;;;;;5075437;28;20258;-82
2021/11/23 04:36:59;;;;;;;49.53;24.63;;;1.30;99.90;;;;;;5059743;28;20181;-81
2021/11/23 04:39:25;;;;;;;54.43;24.57;;;1.30;99.90;;;;;;5077350;28;20666;-82
2021/11/23 04:41:51;;;;;;;60.37;28.43;;;1.40;99.90;;;;;;5077443;28;20180;-82
2021/11/23 04:44:16;;;;;;;56.10;26.63;;;1.40;99.90;;;;;;5076096;28;20182;-82
2021/11/23 04:46:42;;;;;;;53.63;24.77;;;1.50;99.90;;;;;;5076160;28;20244;-82
2021/11/23 04:49:09;;;;;;;62.07;31.77;;;1.50;99.90;;;;;;5077267;28;20627;-82
2021/11/23 04:51:35;;;;;;;66.10;29.40;;;1.60;99.90;;;;;;5075644;28;20202;-83
2021/11/23 04:54:01;;;;;;;79.67;37.40;;;1.60;99.90;;;;;;5075648;28;20190;-81
2021/11/23 04:56:27;;;;;;;67.70;30.00;;;1.70;99.90;;;;;;5059350;28;20274;-82
2021/11/23 04:58:53;;;;;;;48.57;21.80;;;1.80;99.90;;;;;;5075285;28;20260;-83
2021/11/23 05:01:19;;;;;;;57.50;28.23;;;1.70;99.90;;;;;;5076701;28;20183;-82
2021/11/23 05:03:45;;;;;;;65.70;31.70;;;1.80;99.90;;;;;;5075254;28;20206;-85
2021/11/23 05:06:10;;;;;;;70.37;35.97;;;1.90;99.90;;;;;;5075471;28;20179;-82
2021/11/23 05:08:36;;;;;;;64.70;31.70;;;1.80;99.90;;;;;;5075486;28;20581;-83
2021/11/23 05:11:02;;;;;;;56.57;27.87;;;1.90;99.90;;;;;;5076887;28;20175;-83
2021/11/23 05:13:28;;;;;;;58.97;30.73;;;1.90;99.90;;;;;;5075397;28;20190;-82
2021/11/23 05:15:54;;;;;;;50.97;28.83;;;1.90;99.90;;;;;;5076889;28;20200;-83
2021/11/23 05:18:20;;;;;;;49.63;26.33;;;2.00;99.90;;;;;;5075760;28;20219;-83
2021/11/23 05:20:45;;;;;;;44.93;23.93;;;2.00;99.90;;;;;;5075341;28;20215;-83
2021/11/23 05:23:11;;;;;;;37.47;19.87;;;2.00;99.90;;;;;;5075373;28;20194;-82
2021/11/23 05:25:36;;;;;;;35.47;19.03;;;2.10;99.90;;;;;;5058718;28;20183;-82
2021/11/23 05:28:02;;;;;;;23.47;14.57;;;2.00;99.90;;;;;;5075385;28;20184;-82
2021/11/23 05:30:28;;;;;;;32.33;16.13;;;2.00;99.90;;;;;;5058227;28;20186;-81
2021/11/23 05:32:54;;;;;;;23.10;12.73;;;2.00;99.90;;;;;;5076329;28;20186;-82
2021/11/23 05:35:20;;;;;;;20.20;12.27;;;1.90;99.90;;;;;;5058512;28;20237;-81
2021/11/23 05:37:45;;;;;;;24.50;12.80;;;1.90;99.90;;;;;;5074688;28;20176;-81
2021/11/23 05:40:12;;;;;;;25.20;13.00;;;1.90;99.90;;;;;;5074813;28;20226;-85
2021/11/23 05:42:38;;;;;;;21.33;12.70;;;1.90;99.90;;;;;;5074881;28;20175;-82
2021/11/23 05:45:08;;;;;;;26.70;16.17;;;1.80;99.90;;;;;;5073779;28;20184;-81
2021/11/23 05:47:35;;;;;;;31.90;18.73;;;1.90;99.90;;;;;;5074462;28;20162;-82
2021/11/23 05:50:00;;;;;;;37.10;21.63;;;1.90;99.90;;;;;;5076012;28;20190;-83
2021/11/23 05:52:26;;;;;;;29.50;18.50;;;1.90;99.90;;;;;;5058247;28;20191;-82
2021/11/23 05:54:52;;;;;;;27.67;16.77;;;1.80;99.90;;;;;;5086118;28;20182;-82
2021/11/23 05:57:18;;;;;;;25.83;16.97;;;1.70;99.90;;;;;;5094447;28;20183;-83
2021/11/23 05:59:43;;;;;;;24.20;14.67;;;1.60;99.90;;;;;;5075202;28;20549;-82
2021/11/23 06:02:09;;;;;;;28.80;13.53;;;1.60;99.90;;;;;;5094231;28;20247;-82
2021/11/23 06:04:35;;;;;;;20.07;12.20;;;1.50;99.90;;;;;;5059941;28;20181;-82
2021/11/23 06:07:00;;;;;;;21.27;10.97;;;1.50;99.90;;;;;;5091944;28;20732;-85
2021/11/23 06:09:26;;;;;;;18.27;9.67;;;1.30;99.90;;;;;;5092749;28;20250;-81
2021/11/23 06:11:52;;;;;;;16.03;9.23;;;1.30;99.90;;;;;;5075117;28;20275;-82
2021/11/23 06:14:18;;;;;;;18.20;9.20;;;1.30;99.90;;;;;;5091594;28;20186;-85
2021/11/23 06:16:46;;;;;;;17.33;9.90;;;1.20;99.90;;;;;;5092431;28;20211;-82
2021/11/23 06:19:12;;;;;;;18.47;10.70;;;1.20;99.90;;;;;;5091419;28;20218;-83
2021/11/23 06:21:38;;;;;;;18.97;9.47;;;1.20;99.90;;;;;;5093674;28;20179;-80
2021/11/23 06:24:04;;;;;;;21.83;10.77;;;1.20;99.90;;;;;;5091968;28;20178;-80
2021/11/23 06:26:30;;;;;;;22.08;13.73;;;1.30;99.90;;;;;;5090891;28;20424;-81
2021/11/23 06:28:56;;;;;;;18.70;12.03;;;1.30;99.90;;;;;;5092990;28;20179;-81
2021/11/23 06:31:22;;;;;;;23.60;15.13;;;1.40;99.90;;;;;;5072762;28;20195;-81
2021/11/23 06:33:48;;;;;;;25.33;13.63;;;1.50;99.90;;;;;;5092067;28;20681;-81
2021/11/23 06:36:13;;;;;;;21.50;12.73;;;1.50;99.90;;;;;;5093134;28;20182;-81
2021/11/23 06:38:39;;;;;;;29.33;15.07;;;1.50;99.90;;;;;;5093654;28;20198;-82
2021/11/23 06:41:05;;;;;;;27.17;14.63;;;1.50;99.90;;;;;;5093811;28;20261;-81
2021/11/23 06:43:31;;;;;;;26.17;14.13;;;1.50;99.90;;;;;;5092898;28;20187;-80
2021/11/23 06:45:56;;;;;;;31.30;15.37;;;1.60;99.90;;;;;;5093622;28;20189;-81
2021/11/23 06:48:22;;;;;;;28.00;15.20;;;1.60;99.90;;;;;;5072565;28;20555;-80
2021/11/23 06:50:48;;;;;;;26.60;13.43;;;1.60;99.90;;;;;;5093296;28;20662;-81
2021/11/23 06:53:14;;;;;;;27.07;14.83;;;1.70;99.90;;;;;;5087269;28;20305;-78
2021/11/23 06:55:41;;;;;;;24.90;14.50;;;1.60;99.90;;;;;;5086102;28;20178;-83
2021/11/23 06:58:07;;;;;;;31.50;17.40;;;1.70;99.90;;;;;;5084858;28;20627;-79
2021/11/23 07:00:33;;;;;;;33.87;17.77;;;1.80;99.90;;;;;;5087365;28;20221;-80
2021/11/23 07:02:59;;;;;;;36.40;19.03;;;1.70;99.90;;;;;;5082719;28;20175;-79
2021/11/23 07:05:26;;;;;;;30.03;16.37;;;1.60;99.90;;;;;;5065142;28;20194;-81
2021/11/23 07:07:52;;;;;;;28.30;13.60;;;1.70;99.90;;;;;;5082422;28;20234;-81
2021/11/23 07:10:18;;;;;;;38.40;16.50;;;1.70;99.90;;;;;;5080675;28;20183;-79
2021/11/23 07:12:44;;;;;;;28.07;15.13;;;1.70;99.90;;;;;;5085707;28;20190;-80
2021/11/23 07:15:11;;;;;;;27.13;15.47;;;1.70;99.90;;;;;;5087469;28;20607;-79
2021/11/23 07:17:37;;;;;;;24.53;14.13;;;1.80;99.90;;;;;;5076136;28;20677;-80
2021/11/23 07:20:04;;;;;;;19.60;10.60;;;1.80;99.90;;;;;;5073922;28;20204;-81
2021/11/23 07:22:30;;;;;;;27.53;15.23;;;1.90;99.90;;;;;;5087988;28;20209;-81
2021/11/23 07:24:56;;;;;;;29.80;16.53;;;2.00;99.90;;;;;;5096422;28;20183;-81
2021/11/23 07:27:22;;;;;;;24.13;14.60;;;2.00;99.90;;;;;;5095826;28;20190;-83
2021/11/23 07:29:48;;;;;;;24.77;12.83;;;2.40;99.90;;;;;;5086599;28;20213;-80
2021/11/23 07:32:14;;;;;;;23.57;13.47;;;;;;;;;;5084069;28;20624;-80
2021/11/23 07:34:40;;;;;;;19.07;9.67;;;;;;;;;;5102893;28;20237;-86
2021/11/23 07:37:07;;;;;;;27.07;13.80;;;2.10;99.90;;;;;;5100287;28;20182;-81
2021/11/23 07:39:33;;;;;;;26.27;14.67;;;;;;;;;;5106620;28;20225;-84
2021/11/23 07:41:59;;;;;;;26.30;13.27;;;;;;;;;;5112304;27;20174;-84
2021/11/23 07:44:25;;;;;;;15.87;8.67;;;;;;;;;;5099209;28;20193;-80
2021/11/23 07:46:52;;;;;;;22.53;13.37;;;;;;;;;;5092107;28;20185;-82
2021/11/23 07:49:18;;;;;;;22.30;12.43;;;;;;;;;;5101230;28;20197;-83
2021/11/23 07:51:44;;;;;;;19.47;11.27;;;2.60;99.90;;;;;;5116349;28;20171;-90
2021/11/23 07:54:11;;;;;;;17.57;11.47;;;;;;;;;;5115263;28;20177;-85
2021/11/23 07:56:37;;;;;;;18.97;11.60;;;2.60;99.90;;;;;;5105700;28;20235;-82
2021/11/23 07:59:03;;;;;;;20.37;10.97;;;;;;;;;;5088145;28;20226;-82
2021/11/23 08:01:29;;;;;;;14.97;8.27;;;;;;;;;;5091031;28;20225;-81
2021/11/23 08:03:56;;;;;;;21.57;12.00;;;;;;;;;;5086459;28;20190;-82
2021/11/23 08:06:22;;;;;;;21.50;10.63;;;;;;;;;;5058771;28;20705;-81
2021/11/23 08:08:48;;;;;;;18.53;10.00;;;;;;;;;;5070378;28;20231;-79
2021/11/23 08:11:13;;;;;;;22.77;13.00;;;2.60;99.90;;;;;;5080066;28;20622;-81
2021/11/23 08:13:39;;;;;;;22.43;12.20;;;2.60;99.90;;;;;;5072571;28;20187;-81
2021/11/23 08:16:05;;;;;;;18.30;9.73;;;2.70;99.90;;;;;;5092975;28;20276;-81
2021/11/23 08:18:32;;;;;;;12.33;7.87;;;2.70;99.90;;;;;;5092782;28;20636;-82
2021/11/23 08:20:58;;;;;;;10.37;6.67;;;2.90;99.90;;;;;;5080107;28;20264;-83
2021/11/23 08:23:25;;;;;;;8.77;5.97;;;3.00;99.90;;;;;;5070991;28;20188;-84
2021/11/23 08:25:53;;;;;;;10.83;6.63;;;2.90;99.90;;;;;;5071544;28;20182;-82
2021/11/23 08:28:19;;;;;;;9.47;6.20;;;2.80;99.90;;;;;;5072346;28;20176;-83
2021/11/23 08:30:46;;;;;;;11.40;6.67;;;2.80;99.90;;;;;;5072909;28;20183;-84
2021/11/23 08:33:12;;;;;;;11.43;6.73;;;2.70;99.90;;;;;;5073041;28;20654;-83
2021/11/23 08:35:38;;;;;;;6.27;4.43;;;2.90;99.90;;;;;;5071136;28;20183;-82
2021/11/23 08:38:04;;;;;;;7.90;4.93;;;2.90;99.90;;;;;;5081472;28;20183;-81
2021/11/23 08:40:30;;;;;;;4.93;3.73;;;2.90;99.90;;;;;;5090516;28;20486;-83
2021/11/23 08:42:55;;;;;;;4.50;3.43;;;2.80;99.90;;;;;;5090832;28;20649;-81
2021/11/23 08:45:21;;;;;;;5.83;4.07;;;2.80;99.90;;;;;;5090314;28;20644;-82
2021/11/23 08:47:47;;;;;;;8.00;4.23;;;2.80;99.90;;;;;;5072856;28;20186;-80
2021/11/23 08:50:13;;;;;;;6.67;4.30;;;2.80;99.90;;;;;;5071064;28;20210;-84
2021/11/23 08:52:40;;;;;;;5.13;3.40;;;2.90;99.90;;;;;;5090543;28;20221;-78
2021/11/23 08:55:06;;;;;;;7.17;4.27;;;2.80;99.90;;;;;;5087072;28;20203;-81
2021/11/23 08:57:33;;;;;;;5.80;4.67;;;2.70;99.90;;;;;;5086026;28;20203;-80
2021/11/23 09:02:38;;;;;;;8.30;3.27;;;2.70;99.90;;;;;;5088863;28;20199;-81
2021/11/23 09:05:06;;;;;;;6.00;3.63;;;2.40;99.90;;;;;;5081391;28;20271;-80
2021/11/23 09:07:32;;;;;;;9.80;4.97;;;2.30;99.90;;;;;;5088103;28;20178;-82
2021/11/23 09:09:57;;;;;;;5.33;3.53;;;2.20;99.90;;;;;;5091024;28;20247;-80
2021/11/23 09:12:23;;;;;;;6.23;3.00;;;2.20;99.90;;;;;;5089466;28;20179;-80
2021/11/23 09:14:49;;;;;;;6.50;4.77;;;2.20;99.90;;;;;;5088951;28;20174;-81
2021/11/23 09:17:14;;;;;;;8.03;3.87;;;2.20;99.90;;;;;;5088813;28;20590;-83
2021/11/23 09:19:40;;;;;;;5.50;3.80;;;2.20;99.90;;;;;;5091720;28;20211;-79
2021/11/23 09:22:06;;;;;;;4.50;3.43;;;2.20;99.90;;;;;;5087771;28;20189;-81
2021/11/23 09:24:33;;;;;;;6.57;4.03;;;2.20;99.90;;;;;;5094364;28;20179;-77
2021/11/23 09:26:59;;;;;;;8.67;4.10;;;2.20;99.90;;;;;;5095808;28;20223;-81
2021/11/23 09:29:24;;;;;;;6.87;3.63;;;2.30;99.90;;;;;;5090304;28;20589;-82
2021/11/23 09:31:51;;;;;;;5.53;3.70;;;2.30;99.90;;;;;;5091298;28;20170;-81
2021/11/23 09:34:20;;;;;;;6.27;2.97;;;2.40;99.90;;;;;;5069394;28;20178;-82
2021/11/23 09:36:45;;;;;;;8.23;4.50;;;2.40;99.90;;;;;;5090099;28;20179;-82
2021/11/23 09:39:13;;;;;;;8.40;5.17;;;2.50;99.90;;;;;;5087955;28;20221;-78
2021/11/23 09:41:39;;;;;;;7.87;4.87;;;2.60;99.90;;;;;;5104940;28;20202;-83
2021/11/23 09:44:06;;;;;;;8.23;4.57;;;2.60;99.90;;;;;;5094225;28;20182;-81
2021/11/23 09:46:37;;;;;;;10.90;4.50;;;2.60;99.90;;;;;;5094683;28;20175;-81
2021/11/23 09:49:07;;;;;;;12.27;5.67;;;2.60;99.90;;;;;;5095546;28;20219;-81
2021/11/23 09:51:35;;;;;;;10.27;5.07;;;2.60;99.90;;;;;;5094494;28;20193;-81
2021/11/23 09:54:03;;;;;;;10.90;5.77;;;2.60;99.90;;;;;;5094877;28;20643;-80
2021/11/23 09:56:29;;;;;;;8.67;4.67;;;2.70;99.90;;;;;;5095887;28;20309;-82
2021/11/23 09:58:56;;;;;;;8.30;5.17;;;2.60;99.90;;;;;;5095733;28;20674;-81
2021/11/23 10:01:25;;;;;;;8.03;5.50;;;2.70;99.90;;;;;;5095946;28;20714;-81
2021/11/23 10:03:52;;;;;;;10.93;5.80;;;2.70;99.90;;;;;;5096058;28;20174;-80
2021/11/23 10:06:22;;;;;;;10.27;5.07;;;2.80;99.90;;;;;;5095886;28;20182;-80
2021/11/23 10:08:49;;;;;;;7.07;4.60;;;2.80;99.90;;;;;;5095485;28;20268;-80
2021/11/23 10:11:31;;;;;;;9.67;5.10;;;2.90;99.90;;;;;;5095444;28;20178;-81
2021/11/23 10:14:03;;;;;;;10.53;4.47;;;2.90;99.90;;;;;;5095707;28;20165;-81
2021/11/23 10:16:43;;;;;;;10.60;4.90;;;3.00;99.90;;;;;;5095132;28;20623;-83
2021/11/23 10:19:12;;;;;;;6.47;4.17;;;3.10;99.90;;;;;;5094132;28;20199;-83
2021/11/23 10:21:56;;;;;;;9.20;4.63;;;3.20;99.90;;;;;;5077310;28;20194;-81
2021/11/23 10:24:22;;;;;;;10.33;4.63;;;;;;;;;;5095603;28;20208;-81
2021/11/23 10:26:48;;;;;;;10.63;5.30;;;3.20;99.90;;;;;;5094299;28;20180;-81
2021/11/23 10:29:16;;;;;;;12.77;5.20;;;3.30;99.90;;;;;;5084446;28;20221;-83
2021/11/23 10:31:44;;;;;;;4.13;2.47;;;3.40;99.90;;;;;;5094463;28;20181;-80
2021/11/23 10:34:13;;;;;;;4.40;3.83;;;3.40;99.90;;;;;;5095826;28;20181;-81
2021/11/23 10:36:44;;;;;;;11.60;4.07;;;3.40;99.90;;;;;;5095366;28;20181;-81
2021/11/23 10:39:19;;;;;;;4.40;2.50;;;3.50;99.90;;;;;;5095037;28;20202;-81
2021/11/23 10:41:58;;;;;;;6.77;3.43;;;3.50;99.90;;;;;;5082279;28;20180;-81
2021/11/23 10:44:27;;;;;;;6.77;3.37;;;3.60;99.90;;;;;;5077992;28;20260;-81
2021/11/23 10:47:02;;;;;;;6.43;3.37;;;3.70;99.90;;;;;;5087181;28;20180;-81
2021/11/23 10:49:36;;;;;;;4.73;2.37;;;3.70;99.90;;;;;;5085603;28;20180;-82
2021/11/23 10:52:03;;;;;;;6.00;3.27;;;3.80;99.90;;;;;;5092980;28;20176;-83
2021/11/23 10:54:34;;;;;;;10.10;4.20;;;3.80;99.90;;;;;;5093955;28;20179;-81
2021/11/23 10:57:11;;;;;;;3.70;2.77;;;3.80;99.90;;;;;;5092914;28;20171;-81
2021/11/23 10:59:39;;;;;;;13.97;4.07;;;3.80;99.90;;;;;;5093246;28;20689;-83
2021/11/23 11:02:06;;;;;;;6.07;3.60;;;3.80;99.90;;;;;;5093632;28;20269;-81
2021/11/23 11:04:37;;;;;;;10.43;4.23;;;3.80;99.90;;;;;;5094606;28;20277;-82
2021/11/23 11:07:04;;;;;;;7.77;4.23;;;3.80;99.90;;;;;;5092614;28;20229;-81
2021/11/23 11:09:31;;;;;;;6.37;3.27;;;3.80;99.90;;;;;;5093070;28;20256;-80
2021/11/23 11:11:57;;;;;;;9.47;4.40;;;3.70;99.90;;;;;;5092885;28;20240;-83
2021/11/23 11:14:24;;;;;;;5.97;3.73;;;3.60;99.90;;;;;;5093404;28;20174;-81
2021/11/23 11:16:50;;;;;;;7.73;4.07;;;3.60;99.90;;;;;;5092739;28;20243;-81
2021/11/23 11:19:16;;;;;;;8.67;4.30;;;3.60;99.90;;;;;;5092220;28;20694;-82
2021/11/23 11:21:48;;;;;;;5.80;3.80;;;3.50;99.90;;;;;;5093847;28;20198;-81
2021/11/23 11:24:42;;;;;;;10.30;4.17;;;3.50;99.90;;;;;;5092228;28;20187;-81
2021/11/23 11:27:34;;;;;;;8.57;4.13;;;3.40;99.90;;;;;;5091009;28;20251;-82
2021/11/23 11:30:27;;;;;;;4.23;2.77;;;3.40;99.90;;;;;;5082196;28;20188;-80
2021/11/23 11:33:08;;;;;;;6.50;4.47;;;3.30;99.90;;;;;;5072114;28;20181;-82
2021/11/23 11:35:36;;;;;;;4.10;2.63;;;3.20;99.90;;;;;;5073970;28;20657;-81
2021/11/23 11:38:06;;;;;;;8.53;3.93;;;3.00;99.90;;;;;;5073898;28;20200;-81
2021/11/23 11:40:38;;;;;;;6.17;4.10;;;3.00;99.90;;;;;;5073198;28;20303;-81
2021/11/23 11:43:07;;;;;;;11.03;4.97;;;3.10;99.90;;;;;;5074077;28;20175;-81
2021/11/23 11:45:41;;;;;;;7.87;4.00;;;3.00;99.90;;;;;;5073506;28;20209;-81
2021/11/23 11:48:38;;;;;;;9.60;4.60;;;3.10;99.90;;;;;;5072347;28;20171;-80
2021/11/23 11:51:15;;;;;;;13.60;4.27;;;3.10;99.90;;;;;;5073181;28;20188;-80
2021/11/23 11:53:49;;;;;;;6.33;3.97;;;3.10;99.90;;;;;;5073569;28;20207;-80
2021/11/23 11:56:39;;;;;;;6.67;4.13;;;3.10;99.90;;;;;;5074279;28;20209;-81
2021/11/23 11:59:27;;;;;;;6.50;3.57;;;3.30;99.90;;;;;;5063659;28;20197;-80
2021/11/23 12:02:03;;;;;;;7.33;3.70;;;3.20;99.90;;;;;;5073636;28;20269;-80
2021/11/23 12:04:33;;;;;;;18.17;3.57;;;3.30;99.90;;;;;;5073220;28;20170;-80
2021/11/23 12:07:10;;;;;;;9.63;4.43;;;3.40;99.90;;;;;;5073114;28;20268;-81
2021/11/23 12:09:49;;;;;;;8.43;4.63;;;3.30;99.90;;;;;;5071659;28;20234;-81
2021/11/23 12:12:15;;;;;;;8.30;4.77;;;;;;;;;;5073199;28;20183;-81
2021/11/23 12:14:49;;;;;;;5.93;4.10;;;;;;;;;;5071795;28;20184;-80
2021/11/23 12:17:26;;;;;;;11.13;4.10;;;3.20;99.90;;;;;;5073864;28;20210;-81
2021/11/23 12:20:15;;;;;;;6.23;3.93;;;3.10;99.90;;;;;;5072472;28;20326;-80
2021/11/23 12:22:46;;;;;;;3.00;2.67;;;3.10;99.90;;;;;;5083030;28;20187;-81
2021/11/23 12:25:18;;;;;;;7.90;5.00;;;2.60;99.90;;;;;;5092948;28;20567;-80
2021/11/23 12:27:46;;;;;;;6.77;4.43;;;2.90;99.90;;;;;;5091640;28;20205;-82
2021/11/23 12:30:16;;;;;;;12.70;5.73;;;2.90;99.90;;;;;;5090790;28;20194;-86
2021/11/23 12:32:42;;;;;;;14.97;6.63;;;2.90;99.90;;;;;;5083547;28;20240;-80
2021/11/23 12:35:10;;;;;;;8.57;5.40;;;2.90;99.90;;;;;;5073248;28;20635;-81
2021/11/23 12:37:47;;;;;;;9.30;5.93;;;2.90;99.90;;;;;;5072433;28;20225;-83
2021/11/23 12:40:19;;;;;;;10.53;6.10;;;2.60;99.90;;;;;;5083317;28;20200;-81
2021/11/23 12:42:54;;;;;;;5.53;4.10;;;2.90;99.90;;;;;;5079063;28;20184;-81
2021/11/23 12:45:41;;;;;;;11.87;6.37;;;2.90;99.90;;;;;;5091865;28;20264;-79
2021/11/23 12:48:09;;;;;;;13.23;6.63;;;2.90;99.90;;;;;;5093056;28;20170;-82
2021/11/23 12:50:36;;;;;;;15.90;7.50;;;;;;;;;;5085263;28;20197;-82
2021/11/23 12:53:14;;;;;;;10.57;7.00;;;3.20;99.90;;;;;;5079953;28;20263;-82